Аэропорт: Елизово. Петропавловск-Камчатский

ICAO: UHPP

METAR:
2019-11-21 01:30:00
UHPP 210130Z 31006MPS 9999 NSC 02/M08 Q0993 R34L/150060 NOSIG RMK QFE742/0989
METAR:
2019-11-20 22:58:00
TAF UHPP 202258Z 2100/2206 31004G14MPS 9999 SCT030CB TEMPO 2100/2109 27009G18MPS FM211000 36003G12MPS 9999 BKN030CB TEMPO 2200/2206 30003G12MPS